createdAt,value
2023-09-11T00:01:23.362Z,75.93
2023-09-11T00:03:50.878Z,75.34
2023-09-11T00:06:17.544Z,75.27
2023-09-11T00:08:44.291Z,75.17
2023-09-11T00:11:10.951Z,75.26
2023-09-11T00:13:37.442Z,75.08
2023-09-11T00:16:03.972Z,74.97
2023-09-11T00:18:30.514Z,75.44
2023-09-11T00:20:57.025Z,75.39
2023-09-11T00:23:23.589Z,75.06
2023-09-11T00:25:50.148Z,74.90
2023-09-11T00:28:16.604Z,75.18
2023-09-11T00:30:43.199Z,74.81
2023-09-11T00:33:09.881Z,74.98
2023-09-11T00:35:36.913Z,74.81
2023-09-11T00:38:03.579Z,75.08
2023-09-11T00:40:30.086Z,75.38
2023-09-11T00:42:56.538Z,75.35
2023-09-11T00:45:22.971Z,75.36
2023-09-11T00:47:50.308Z,75.34
2023-09-11T00:50:18.509Z,75.29
2023-09-11T00:52:45.675Z,75.50
2023-09-11T00:55:12.933Z,75.52
2023-09-11T00:57:39.815Z,75.78
2023-09-11T01:00:07.160Z,75.74
2023-09-11T01:02:34.711Z,75.53
2023-09-11T01:05:01.679Z,75.56
2023-09-11T01:07:28.296Z,75.88
2023-09-11T01:09:55.141Z,75.72
2023-09-11T01:12:21.629Z,75.88
2023-09-11T01:14:48.245Z,75.87
2023-09-11T01:17:25.456Z,76.28
2023-09-11T01:20:22.502Z,76.48
2023-09-11T01:23:21.154Z,76.49
2023-09-11T01:26:06.727Z,76.23
2023-09-11T01:28:43.726Z,76.48
2023-09-11T01:31:10.978Z,76.48
2023-09-11T01:33:37.903Z,76.06
2023-09-11T01:36:04.517Z,75.96
2023-09-11T01:38:31.063Z,76.48
2023-09-11T01:41:00.432Z,76.53
2023-09-11T01:43:32.902Z,76.89
2023-09-11T01:46:02.298Z,76.84
2023-09-11T01:48:32.147Z,76.85
2023-09-11T01:50:59.608Z,76.94
2023-09-11T01:53:27.856Z,77.16
2023-09-11T01:55:56.644Z,76.92
2023-09-11T01:58:23.154Z,76.88
2023-09-11T02:00:49.630Z,76.95
2023-09-11T02:03:17.816Z,77.30
2023-09-11T02:05:44.509Z,76.90
2023-09-11T02:08:11.071Z,77.53
2023-09-11T02:10:37.542Z,77.33
2023-09-11T02:13:04.078Z,77.15
2023-09-11T02:15:30.565Z,77.25
2023-09-11T02:17:57.138Z,77.42
2023-09-11T02:20:23.702Z,77.20
2023-09-11T02:22:50.180Z,77.04
2023-09-11T02:25:16.670Z,76.60
2023-09-11T02:27:43.103Z,76.89
2023-09-11T02:30:09.694Z,77.28
2023-09-11T02:32:36.263Z,77.75
2023-09-11T02:35:02.832Z,77.64
2023-09-11T02:37:29.334Z,77.40
2023-09-11T02:39:55.835Z,77.33
2023-09-11T02:42:22.286Z,77.34
2023-09-11T02:44:48.820Z,77.22
2023-09-11T02:47:15.268Z,77.86
2023-09-11T02:49:41.799Z,77.83
2023-09-11T02:52:08.485Z,77.66
2023-09-11T02:54:35.116Z,77.79
2023-09-11T02:57:01.982Z,77.57
2023-09-11T02:59:28.560Z,77.41
2023-09-11T03:01:55.182Z,77.42
2023-09-11T03:04:21.654Z,78.44
2023-09-11T03:06:48.158Z,78.17
2023-09-11T03:09:15.009Z,79.01
2023-09-11T03:11:41.623Z,79.39
2023-09-11T03:14:08.287Z,80.04
2023-09-11T03:16:34.827Z,79.42
2023-09-11T03:19:01.281Z,79.61
2023-09-11T03:21:28.664Z,80.24
2023-09-11T03:23:55.232Z,79.55
2023-09-11T03:26:21.761Z,79.95
2023-09-11T03:28:52.371Z,79.77
2023-09-11T03:31:23.420Z,79.82
2023-09-11T03:33:50.294Z,79.54
2023-09-11T03:36:18.430Z,79.54
2023-09-11T03:38:45.544Z,79.97
2023-09-11T03:41:12.235Z,80.50
2023-09-11T03:43:39.077Z,79.54
2023-09-11T03:46:06.256Z,79.46
2023-09-11T03:48:33.908Z,79.80
2023-09-11T03:51:01.180Z,79.34
2023-09-11T03:53:27.952Z,79.38
2023-09-11T03:55:54.489Z,79.03
2023-09-11T03:58:21.105Z,79.22
2023-09-11T04:00:47.668Z,79.13
2023-09-11T04:03:14.995Z,79.42
2023-09-11T04:05:41.765Z,79.60
2023-09-11T04:08:08.270Z,79.97
2023-09-11T04:10:34.713Z,80.08
2023-09-11T04:13:01.198Z,79.82
2023-09-11T04:15:27.685Z,80.08
2023-09-11T04:17:58.597Z,80.33
2023-09-11T04:20:25.589Z,80.21
2023-09-11T04:22:52.972Z,80.32
2023-09-11T04:25:19.473Z,79.74
2023-09-11T04:27:45.975Z,79.63
2023-09-11T04:30:12.752Z,80.03
2023-09-11T04:32:39.342Z,80.06
2023-09-11T04:35:08.530Z,79.98
2023-09-11T04:37:35.321Z,80.12
2023-09-11T04:40:01.927Z,79.95
2023-09-11T04:42:28.777Z,80.49
2023-09-11T04:45:00.100Z,80.50
2023-09-11T04:47:32.585Z,80.64
2023-09-11T04:50:00.361Z,80.57
2023-09-11T04:52:27.009Z,80.60
2023-09-11T04:54:54.426Z,80.74
2023-09-11T04:57:21.102Z,81.46
2023-09-11T04:59:47.628Z,81.75
2023-09-11T05:02:14.107Z,81.57
2023-09-11T05:04:40.669Z,81.50
2023-09-11T05:07:07.320Z,81.62
2023-09-11T05:09:34.046Z,81.62
2023-09-11T05:12:01.207Z,82.21
2023-09-11T05:14:27.853Z,82.02
2023-09-11T05:16:54.332Z,83.39
2023-09-11T05:19:21.375Z,82.89
2023-09-11T05:21:47.866Z,83.12
2023-09-11T05:24:14.313Z,83.52
2023-09-11T05:26:40.834Z,83.61
2023-09-11T05:29:07.299Z,83.41
2023-09-11T05:31:33.788Z,83.98
2023-09-11T05:34:00.486Z,83.69
2023-09-11T05:36:27.059Z,84.56
2023-09-11T05:38:53.599Z,84.71
2023-09-11T05:41:21.590Z,87.09
2023-09-11T05:43:48.078Z,87.74
2023-09-11T05:46:14.555Z,88.20
2023-09-11T05:48:41.241Z,86.33
2023-09-11T05:51:08.032Z,87.97
2023-09-11T05:53:35.860Z,89.78
2023-09-11T05:56:02.684Z,91.53
2023-09-11T05:58:29.146Z,95.02
2023-09-11T06:00:55.699Z,95.05
2023-09-11T06:03:22.316Z,97.63
2023-09-11T06:05:49.004Z,98.53
2023-09-11T06:08:16.275Z,98.86
2023-09-11T06:10:42.836Z,99.69
2023-09-11T06:13:09.276Z,99.60
2023-09-11T06:15:35.773Z,100.00
2023-09-11T06:18:02.347Z,99.92
2023-09-11T06:20:29.195Z,100.00
2023-09-11T06:22:56.857Z,99.55
2023-09-11T06:25:23.524Z,100.00
2023-09-11T06:27:50.416Z,100.00
2023-09-11T06:30:16.936Z,100.00
2023-09-11T06:32:43.660Z,100.00
2023-09-11T06:35:11.089Z,100.00
2023-09-11T06:37:38.370Z,100.00
2023-09-11T06:40:09.027Z,100.00
2023-09-11T06:42:36.289Z,100.00
2023-09-11T06:45:03.963Z,100.00
2023-09-11T06:47:30.594Z,100.00
2023-09-11T06:49:57.407Z,100.00
2023-09-11T06:52:23.903Z,100.00
2023-09-11T06:54:50.486Z,100.00
2023-09-11T06:57:17.056Z,100.00
2023-09-11T06:59:43.553Z,100.00
2023-09-11T07:02:10.034Z,100.00
2023-09-11T07:04:36.618Z,100.00
2023-09-11T07:07:03.234Z,100.00
2023-09-11T07:09:29.746Z,100.00
2023-09-11T07:11:57.362Z,100.00
2023-09-11T07:14:24.626Z,100.00
2023-09-11T07:16:51.084Z,100.00
2023-09-11T07:19:17.662Z,100.00
2023-09-11T07:21:45.729Z,100.00
2023-09-11T07:24:13.172Z,100.00
2023-09-11T07:26:40.110Z,100.00
2023-09-11T07:29:06.643Z,100.00
2023-09-11T07:31:33.771Z,98.69
2023-09-11T07:34:00.714Z,96.80
2023-09-11T07:36:28.857Z,89.02
2023-09-11T07:38:55.458Z,84.55
2023-09-11T07:41:22.081Z,84.01
2023-09-11T07:43:51.667Z,83.08
2023-09-11T07:46:22.904Z,81.79
2023-09-11T07:48:50.694Z,80.98
2023-09-11T07:51:17.336Z,78.95
2023-09-11T07:53:45.469Z,79.24
2023-09-11T07:56:12.879Z,78.09
2023-09-11T07:58:40.284Z,78.09
2023-09-11T08:01:07.031Z,78.71
2023-09-11T08:03:34.377Z,78.19
2023-09-11T08:06:01.637Z,77.46
2023-09-11T08:08:28.749Z,77.54
2023-09-11T08:10:56.935Z,77.88
2023-09-11T08:13:25.194Z,76.54
2023-09-11T08:15:52.152Z,76.03
2023-09-11T08:18:18.804Z,74.27
2023-09-11T08:20:46.961Z,73.95
2023-09-11T08:23:13.512Z,72.26
2023-09-11T08:25:39.969Z,71.78
2023-09-11T08:28:06.871Z,70.70
2023-09-11T08:30:33.355Z,71.13
2023-09-11T08:32:59.980Z,70.53
2023-09-11T08:35:26.630Z,70.33
2023-09-11T08:37:53.152Z,68.23
2023-09-11T08:40:21.666Z,69.41
2023-09-11T08:42:48.108Z,68.33
2023-09-11T08:45:14.594Z,67.38
2023-09-11T08:47:43.323Z,67.30
2023-09-11T08:50:10.694Z,67.11
2023-09-11T08:52:38.930Z,66.63
2023-09-11T08:55:10.122Z,65.31
2023-09-11T08:57:39.959Z,63.61
2023-09-11T09:00:12.785Z,61.71
2023-09-11T09:02:40.332Z,59.70
2023-09-11T09:05:07.920Z,59.24
2023-09-11T09:07:34.955Z,60.05
2023-09-11T09:10:04.067Z,57.67
2023-09-11T09:12:30.630Z,57.09
2023-09-11T09:14:58.047Z,55.17
2023-09-11T09:17:24.547Z,53.59
2023-09-11T09:19:50.993Z,52.88
2023-09-11T09:22:17.677Z,53.17
2023-09-11T09:24:54.882Z,53.47
2023-09-11T09:27:28.246Z,53.16
2023-09-11T09:29:55.395Z,53.51
2023-09-11T09:32:22.143Z,54.09
2023-09-11T09:34:54.888Z,55.13
2023-09-11T09:37:22.894Z,53.25
2023-09-11T09:39:50.035Z,52.82
2023-09-11T09:42:17.192Z,52.94
2023-09-11T09:44:48.786Z,52.98
2023-09-11T09:47:20.368Z,53.48
2023-09-11T09:49:53.596Z,53.86
2023-09-11T09:52:22.704Z,52.63
2023-09-11T09:54:55.981Z,53.70
2023-09-11T09:57:24.736Z,53.70
2023-09-11T09:59:55.038Z,52.59
2023-09-11T10:02:29.329Z,52.29
2023-09-11T10:04:58.843Z,52.61
2023-09-11T10:07:40.412Z,51.76
2023-09-11T10:10:23.520Z,51.94
2023-09-11T10:13:05.425Z,52.43
2023-09-11T10:15:33.654Z,53.46
2023-09-11T10:18:01.526Z,52.39
2023-09-11T10:20:28.358Z,52.01
2023-09-11T10:22:56.447Z,53.20
2023-09-11T10:25:23.581Z,55.34
2023-09-11T10:27:53.279Z,55.89
2023-09-11T10:30:22.738Z,53.09
2023-09-11T10:32:58.669Z,53.35
2023-09-11T10:35:28.181Z,52.32
2023-09-11T10:37:58.820Z,52.65
2023-09-11T10:40:29.516Z,52.83
2023-09-11T10:42:56.249Z,53.59
2023-09-11T10:45:29.925Z,54.95
2023-09-11T10:47:56.879Z,53.47
2023-09-11T10:50:39.759Z,52.42
2023-09-11T10:53:07.048Z,50.46
2023-09-11T10:55:33.745Z,50.89
2023-09-11T10:58:04.195Z,50.82
2023-09-11T11:00:30.637Z,49.29
2023-09-11T11:02:58.496Z,49.53
2023-09-11T11:05:27.224Z,50.20
2023-09-11T11:07:53.784Z,49.49
2023-09-11T11:10:20.892Z,48.72
2023-09-11T11:12:47.565Z,50.23
2023-09-11T11:15:25.810Z,48.95
2023-09-11T11:18:12.642Z,49.28
2023-09-11T11:21:06.307Z,50.92
2023-09-11T11:23:55.357Z,49.68
2023-09-11T11:26:24.921Z,51.40
2023-09-11T11:28:52.150Z,51.38
2023-09-11T11:31:21.383Z,50.31
2023-09-11T11:33:50.060Z,50.17
2023-09-11T11:36:18.419Z,48.11
2023-09-11T11:38:45.626Z,48.18
2023-09-11T11:41:13.303Z,47.11
2023-09-11T11:43:43.342Z,47.72
2023-09-11T11:46:11.494Z,48.15
2023-09-11T11:48:38.951Z,47.46
2023-09-11T11:51:05.927Z,48.49
2023-09-11T11:53:33.549Z,48.77
2023-09-11T11:56:02.177Z,48.37
2023-09-11T11:58:28.683Z,49.08
2023-09-11T12:01:06.575Z,49.26
2023-09-11T12:03:34.861Z,49.56
2023-09-11T12:06:02.717Z,48.10
2023-09-11T12:08:29.485Z,47.29
2023-09-11T12:10:56.006Z,47.55
2023-09-11T12:13:38.646Z,47.79
2023-09-11T12:16:06.125Z,46.69
2023-09-11T12:18:37.347Z,47.34
2023-09-11T12:21:08.855Z,48.13
2023-09-11T12:23:35.513Z,46.49
2023-09-11T12:26:05.569Z,46.05
2023-09-11T12:28:33.740Z,45.54
2023-09-11T12:31:00.618Z,45.09
2023-09-11T12:33:32.790Z,44.36
2023-09-11T12:35:59.589Z,44.45
2023-09-11T12:38:27.357Z,43.68
2023-09-11T12:40:56.324Z,45.33
2023-09-11T12:43:25.856Z,45.21
2023-09-11T12:45:52.365Z,44.86
2023-09-11T12:48:19.122Z,44.98
2023-09-11T12:50:45.892Z,44.54
2023-09-11T12:53:12.499Z,45.44
2023-09-11T12:55:39.034Z,45.27
2023-09-11T12:58:05.655Z,47.29
2023-09-11T13:00:34.150Z,47.21
2023-09-11T13:03:02.347Z,47.01
2023-09-11T13:05:30.172Z,45.84
2023-09-11T13:07:57.953Z,46.82
2023-09-11T13:10:25.120Z,45.18
2023-09-11T13:12:51.563Z,47.01
2023-09-11T13:15:18.629Z,46.98
2023-09-11T13:17:45.757Z,46.43
2023-09-11T13:20:12.668Z,46.54
2023-09-11T13:22:43.272Z,46.75
2023-09-11T13:25:12.712Z,46.56
2023-09-11T13:27:40.572Z,46.46
2023-09-11T13:30:08.710Z,45.44
2023-09-11T13:32:38.392Z,45.83
2023-09-11T13:35:06.868Z,45.14
2023-09-11T13:37:33.987Z,45.76
2023-09-11T13:40:00.438Z,45.18
2023-09-11T13:42:27.030Z,45.55
2023-09-11T13:44:54.932Z,45.22
2023-09-11T13:47:21.506Z,47.17
2023-09-11T13:49:47.972Z,47.21
2023-09-11T13:52:15.778Z,47.20
2023-09-11T13:54:45.505Z,46.46
2023-09-11T13:57:15.092Z,46.64
2023-09-11T13:59:41.768Z,46.38
2023-09-11T14:02:08.314Z,46.68
2023-09-11T14:04:36.338Z,46.74
2023-09-11T14:07:04.402Z,46.70
2023-09-11T14:09:31.594Z,45.75
2023-09-11T14:11:59.319Z,46.79
2023-09-11T14:14:25.896Z,46.13
2023-09-11T14:16:52.355Z,46.85
2023-09-11T14:19:18.951Z,45.15
2023-09-11T14:21:45.407Z,43.60
2023-09-11T14:24:11.865Z,45.42
2023-09-11T14:26:38.852Z,44.91
2023-09-11T14:29:05.342Z,44.83
2023-09-11T14:31:32.898Z,45.84
2023-09-11T14:33:59.373Z,44.73
2023-09-11T14:36:25.840Z,45.85
2023-09-11T14:38:52.972Z,45.37
2023-09-11T14:41:19.465Z,45.38
2023-09-11T14:43:45.909Z,46.23
2023-09-11T14:46:12.415Z,46.63
2023-09-11T14:48:39.078Z,45.29
2023-09-11T14:51:05.800Z,43.85
2023-09-11T14:53:40.459Z,43.81
2023-09-11T14:56:07.247Z,45.06
2023-09-11T14:58:33.721Z,44.32
2023-09-11T15:01:00.219Z,46.47
2023-09-11T15:03:26.823Z,45.01
2023-09-11T15:05:53.450Z,46.10
2023-09-11T15:08:20.204Z,46.20
2023-09-11T15:10:48.595Z,45.60
2023-09-11T15:13:15.508Z,46.61
2023-09-11T15:15:43.524Z,44.97
2023-09-11T15:18:13.450Z,45.24
2023-09-11T15:20:40.009Z,45.50
2023-09-11T15:23:06.972Z,46.61
2023-09-11T15:25:34.353Z,47.59
2023-09-11T15:28:00.936Z,48.07
2023-09-11T15:30:27.459Z,47.26
2023-09-11T15:32:57.027Z,47.82
2023-09-11T15:35:23.732Z,49.03
2023-09-11T15:37:50.468Z,48.04
2023-09-11T15:40:16.949Z,49.15
2023-09-11T15:42:43.430Z,49.82
2023-09-11T15:45:10.136Z,49.71
2023-09-11T15:47:36.681Z,48.01
2023-09-11T15:50:04.117Z,49.80
2023-09-11T15:52:30.559Z,48.88
2023-09-11T15:54:57.010Z,48.49
2023-09-11T15:57:23.561Z,47.93
2023-09-11T15:59:50.144Z,49.56
2023-09-11T16:02:16.696Z,50.04
2023-09-11T16:04:45.641Z,50.90
2023-09-11T16:07:12.196Z,51.31
2023-09-11T16:09:38.648Z,50.49
2023-09-11T16:12:06.048Z,48.99
2023-09-11T16:14:32.600Z,49.69
2023-09-11T16:17:00.811Z,50.67
2023-09-11T16:19:27.290Z,49.29
2023-09-11T16:21:53.810Z,48.39
2023-09-11T16:24:20.384Z,48.83
2023-09-11T16:26:47.000Z,48.13
2023-09-11T16:29:14.634Z,48.50
2023-09-11T16:31:42.094Z,48.26
2023-09-11T16:34:11.391Z,49.23
2023-09-11T16:36:37.934Z,50.52
2023-09-11T16:39:04.415Z,51.66
2023-09-11T16:41:30.927Z,52.32
2023-09-11T16:43:57.532Z,53.34
2023-09-11T16:46:24.440Z,53.78
2023-09-11T16:48:50.941Z,54.49
2023-09-11T16:51:17.470Z,54.88
2023-09-11T16:53:44.032Z,55.31
2023-09-11T16:56:10.597Z,55.58
2023-09-11T16:58:37.087Z,56.08
2023-09-11T17:01:07.931Z,56.41
2023-09-11T17:03:34.644Z,56.89
2023-09-11T17:06:01.217Z,57.45
2023-09-11T17:08:27.814Z,57.61
2023-09-11T17:10:54.406Z,57.98
2023-09-11T17:13:21.177Z,58.43
2023-09-11T17:15:47.838Z,58.48
2023-09-11T17:18:14.604Z,58.68
2023-09-11T17:20:42.162Z,58.63
2023-09-11T17:23:09.080Z,58.83
2023-09-11T17:25:36.032Z,58.82
2023-09-11T17:28:02.695Z,59.03
2023-09-11T17:30:30.110Z,59.18
2023-09-11T17:32:56.676Z,59.64
2023-09-11T17:35:23.340Z,59.91
2023-09-11T17:37:49.805Z,60.11
2023-09-11T17:40:16.656Z,60.17
2023-09-11T17:42:43.134Z,60.39
2023-09-11T17:45:10.057Z,60.84
2023-09-11T17:47:38.936Z,61.22
2023-09-11T17:50:06.393Z,60.69
2023-09-11T17:52:32.970Z,60.87
2023-09-11T17:54:59.485Z,61.28
2023-09-11T17:57:26.075Z,60.92
2023-09-11T17:59:52.647Z,61.68
2023-09-11T18:02:19.259Z,61.80
2023-09-11T18:04:45.879Z,61.77
2023-09-11T18:07:12.776Z,61.71
2023-09-11T18:09:39.279Z,61.79
2023-09-11T18:12:06.191Z,61.95
2023-09-11T18:14:32.651Z,61.69
2023-09-11T18:16:59.147Z,61.86
2023-09-11T18:19:25.590Z,61.73
2023-09-11T18:21:52.047Z,61.78
2023-09-11T18:24:18.657Z,61.90
2023-09-11T18:26:45.140Z,62.02
2023-09-11T18:29:16.017Z,62.13
2023-09-11T18:31:42.929Z,61.91
2023-09-11T18:34:10.703Z,61.89
2023-09-11T18:36:38.347Z,62.47
2023-09-11T18:39:05.799Z,62.09
2023-09-11T18:41:32.507Z,62.14
2023-09-11T18:43:58.976Z,62.40
2023-09-11T18:46:25.920Z,62.54
2023-09-11T18:48:52.969Z,63.01
2023-09-11T18:51:19.853Z,63.14
2023-09-11T18:53:46.348Z,63.14
2023-09-11T18:56:12.824Z,63.18
2023-09-11T18:58:39.554Z,63.04
2023-09-11T19:01:06.464Z,63.29
2023-09-11T19:03:33.954Z,63.65
2023-09-11T19:06:00.578Z,63.71
2023-09-11T19:08:27.606Z,63.96
2023-09-11T19:10:54.250Z,63.97
2023-09-11T19:13:20.805Z,64.45
2023-09-11T19:15:49.136Z,63.99
2023-09-11T19:18:17.137Z,64.29
2023-09-11T19:20:43.769Z,64.35
2023-09-11T19:23:10.224Z,64.64
2023-09-11T19:25:36.762Z,64.96
2023-09-11T19:28:03.426Z,65.28
2023-09-11T19:30:35.403Z,65.05
2023-09-11T19:33:01.930Z,65.38
2023-09-11T19:35:28.481Z,65.32
2023-09-11T19:37:54.990Z,65.39
2023-09-11T19:40:21.454Z,65.69
2023-09-11T19:42:47.907Z,66.21
2023-09-11T19:45:14.555Z,66.35
2023-09-11T19:47:41.066Z,66.57
2023-09-11T19:50:08.267Z,66.53
2023-09-11T19:52:34.741Z,66.76
2023-09-11T19:55:01.305Z,66.79
2023-09-11T19:57:34.017Z,66.79
2023-09-11T20:00:00.623Z,67.05
2023-09-11T20:02:27.411Z,66.92
2023-09-11T20:04:54.013Z,67.71
2023-09-11T20:07:20.758Z,67.62
2023-09-11T20:09:47.254Z,68.50
2023-09-11T20:12:13.751Z,68.29
2023-09-11T20:14:40.352Z,68.55
2023-09-11T20:17:07.943Z,68.45
2023-09-11T20:19:34.472Z,68.39
2023-09-11T20:22:01.021Z,68.33
2023-09-11T20:24:27.560Z,68.64
2023-09-11T20:26:54.191Z,69.19
2023-09-11T20:29:21.847Z,69.15
2023-09-11T20:31:48.312Z,69.06
2023-09-11T20:34:14.852Z,69.07
2023-09-11T20:36:42.790Z,68.97
2023-09-11T20:39:09.377Z,69.17
2023-09-11T20:41:35.871Z,69.45
2023-09-11T20:44:03.924Z,69.49
2023-09-11T20:46:31.113Z,69.41
2023-09-11T20:48:57.698Z,69.43
2023-09-11T20:51:24.225Z,69.49
2023-09-11T20:53:50.695Z,69.75
2023-09-11T20:56:17.394Z,69.71
2023-09-11T20:58:45.382Z,70.02
2023-09-11T21:01:11.927Z,70.26
2023-09-11T21:03:38.823Z,70.39
2023-09-11T21:06:06.084Z,70.61
2023-09-11T21:08:32.610Z,70.64
2023-09-11T21:10:59.596Z,70.62
2023-09-11T21:13:26.857Z,70.81
2023-09-11T21:15:53.560Z,70.65
2023-09-11T21:18:22.108Z,70.79
2023-09-11T21:20:49.223Z,70.85
2023-09-11T21:23:15.830Z,70.75
2023-09-11T21:25:42.337Z,71.31
2023-09-11T21:28:08.776Z,71.74
2023-09-11T21:30:35.347Z,71.69
2023-09-11T21:33:01.977Z,71.84
2023-09-11T21:35:29.603Z,71.94
2023-09-11T21:37:56.170Z,72.17
2023-09-11T21:40:22.672Z,71.54
2023-09-11T21:42:49.116Z,71.33
2023-09-11T21:45:15.869Z,71.96
2023-09-11T21:47:42.415Z,72.06
2023-09-11T21:50:09.125Z,72.04
2023-09-11T21:52:35.554Z,72.32
2023-09-11T21:55:02.114Z,73.06
2023-09-11T21:57:28.679Z,73.18
2023-09-11T21:59:55.177Z,73.25
2023-09-11T22:02:21.678Z,73.04
2023-09-11T22:04:51.810Z,73.02
2023-09-11T22:07:18.319Z,73.03
2023-09-11T22:09:44.782Z,73.69
2023-09-11T22:12:13.121Z,73.74
2023-09-11T22:14:40.072Z,73.76
2023-09-11T22:17:06.592Z,73.89
2023-09-11T22:19:33.121Z,73.74
2023-09-11T22:21:59.568Z,73.76
2023-09-11T22:24:26.045Z,74.05
2023-09-11T22:26:52.825Z,74.80
2023-09-11T22:29:20.580Z,74.74
2023-09-11T22:31:47.383Z,74.79
2023-09-11T22:34:13.905Z,74.47
2023-09-11T22:36:40.455Z,74.56
2023-09-11T22:39:06.971Z,74.51
2023-09-11T22:41:33.505Z,74.62
2023-09-11T22:44:00.007Z,74.54
2023-09-11T22:46:26.513Z,74.59
2023-09-11T22:48:53.047Z,74.37
2023-09-11T22:51:19.636Z,74.90
2023-09-11T22:53:46.185Z,75.19
2023-09-11T22:56:12.639Z,75.37
2023-09-11T22:58:39.089Z,75.29
2023-09-11T23:01:21.130Z,74.52
2023-09-11T23:03:52.066Z,75.11
2023-09-11T23:06:18.597Z,75.24
2023-09-11T23:08:45.151Z,75.20
2023-09-11T23:11:11.722Z,75.43
2023-09-11T23:13:38.223Z,75.67
2023-09-11T23:16:04.900Z,75.86
2023-09-11T23:18:31.496Z,75.82
2023-09-11T23:20:58.021Z,76.17
2023-09-11T23:23:35.219Z,75.90
2023-09-11T23:26:01.672Z,75.82
2023-09-11T23:28:28.386Z,75.78
2023-09-11T23:30:59.186Z,76.01
2023-09-11T23:33:26.184Z,76.06
2023-09-11T23:35:53.092Z,76.24
2023-09-11T23:38:19.583Z,76.41
2023-09-11T23:40:46.042Z,76.60
2023-09-11T23:43:12.652Z,76.41
2023-09-11T23:45:39.191Z,76.73
2023-09-11T23:48:05.990Z,76.36
2023-09-11T23:50:32.497Z,77.15
2023-09-11T23:53:00.132Z,77.29
2023-09-11T23:55:26.940Z,77.39
2023-09-11T23:57:53.381Z,77.13
